West Milton, New York
Current Conditions -  °F | °C
As of 1:51 AM on Sunday 26 Oct 2014 (Local Time) from KALB Reporting Station
Thunderstorm Thunderstorm  
Wind Chill: 50°   Ceiling: 3700
Heat Index: 50°   Visibility: 10mi
Dew Point: 46°   Wind: 8mph
Humidity: 86%   Direction: 340°NNW
Pressure: 29.52"   Gusts: NA
Location:  43.002°N, 73.8759°W
Report Text: KALB 260551Z 34007KT 10SM TS BKN037CB OVC050 10/08 A2952 RMK AO2 TSB42 SLP998 OCNL LTGICCG SW-W TS SW-W MOV SE 60001 T01000078 10144 20072 55011 $
Loading
Personal Weather Stations






























Interactive Weather Map
Tropical Storm Tracking
New forecast layout! Learn more

10-Day Weather Forecast

Advertisements
Track Severe Weather on mobile